createdAt,value
2022-10-21T00:00:51.076Z,86570.25
2022-10-21T00:03:18.970Z,86566.78
2022-10-21T00:05:46.222Z,86591.69
2022-10-21T00:08:13.362Z,86584.09
2022-10-21T00:10:40.363Z,86560.53
2022-10-21T00:13:07.827Z,86576.47
2022-10-21T00:15:34.769Z,86564.69
2022-10-21T00:18:01.727Z,86582.72
2022-10-21T00:20:28.763Z,86573.00
2022-10-21T00:22:55.723Z,86557.78
2022-10-21T00:25:22.627Z,86557.06
2022-10-21T00:27:49.536Z,86561.94
2022-10-21T00:30:16.541Z,86565.38
2022-10-21T00:32:43.529Z,86555.72
2022-10-21T00:35:10.494Z,86565.41
2022-10-21T00:37:37.618Z,86548.09
2022-10-21T00:40:05.063Z,86537.75
2022-10-21T00:42:39.702Z,86511.38
2022-10-21T00:45:16.971Z,86521.13
2022-10-21T00:47:53.267Z,86559.84
2022-10-21T00:50:31.445Z,86553.66
2022-10-21T00:53:00.709Z,86503.03
2022-10-21T00:55:31.382Z,86541.75
2022-10-21T00:57:58.635Z,86538.94
2022-10-21T01:00:25.664Z,86537.63
2022-10-21T01:02:53.056Z,86552.16
2022-10-21T01:05:20.303Z,86534.81
2022-10-21T01:07:49.361Z,86524.47
2022-10-21T01:10:17.150Z,86543.88
2022-10-21T01:13:27.311Z,86533.50
2022-10-21T01:16:03.604Z,86518.91
2022-10-21T01:18:51.573Z,86545.22
2022-10-21T01:21:18.467Z,86539.00
2022-10-21T01:24:18.609Z,86532.75
2022-10-21T01:26:57.461Z,86536.19
2022-10-21T01:29:42.652Z,86543.78
2022-10-21T01:32:12.462Z,86537.56
2022-10-21T01:34:53.631Z,86543.03
2022-10-21T01:37:29.995Z,86545.75
2022-10-21T01:40:10.366Z,86548.53
2022-10-21T01:42:56.822Z,86545.09
2022-10-21T01:45:39.407Z,86545.78
2022-10-21T01:48:14.089Z,86531.25
2022-10-21T01:50:52.271Z,86545.09
2022-10-21T01:53:20.886Z,86525.59
2022-10-21T01:55:49.615Z,86556.00
2022-10-21T01:58:22.518Z,86551.16
2022-10-21T02:00:52.315Z,86530.34
2022-10-21T02:03:32.842Z,86555.31
2022-10-21T02:06:00.092Z,86553.22
2022-10-21T02:08:27.675Z,86521.97
2022-10-21T02:10:58.084Z,86544.16
2022-10-21T02:13:32.192Z,86549.63
2022-10-21T02:16:02.697Z,86538.53
2022-10-21T02:18:29.642Z,86544.03
2022-10-21T02:21:00.774Z,86545.44
2022-10-21T02:23:54.020Z,86555.81
2022-10-21T02:26:26.424Z,86559.22
2022-10-21T02:28:55.885Z,86535.66
2022-10-21T02:31:34.997Z,86561.28
2022-10-21T02:34:27.724Z,86557.84
2022-10-21T02:37:07.396Z,86549.41
2022-10-21T02:39:47.485Z,86564.69
2022-10-21T02:42:20.534Z,86522.38
2022-10-21T02:44:47.619Z,86539.03
2022-10-21T02:47:16.864Z,86559.13
2022-10-21T02:49:45.168Z,86561.13
2022-10-21T02:52:12.355Z,86542.41
2022-10-21T02:54:39.378Z,86567.34
2022-10-21T02:57:06.355Z,86521.59
2022-10-21T02:59:33.287Z,86556.94
2022-10-21T03:02:00.465Z,86540.31
2022-10-21T03:04:27.482Z,86563.91
2022-10-21T03:06:55.059Z,86559.69
2022-10-21T03:09:22.087Z,86543.75
2022-10-21T03:11:48.980Z,86574.91
2022-10-21T03:14:16.043Z,86554.09
2022-10-21T03:16:42.903Z,86572.09
2022-10-21T03:19:11.049Z,86565.16
2022-10-21T03:21:37.940Z,86536.63
2022-10-21T03:24:10.932Z,86547.81
2022-10-21T03:26:51.871Z,86565.84
2022-10-21T03:29:18.795Z,86535.25
2022-10-21T03:31:45.794Z,86558.75
2022-10-21T03:34:12.697Z,86567.84
2022-10-21T03:36:39.629Z,86567.13
2022-10-21T03:39:06.648Z,86528.31
2022-10-21T03:41:33.714Z,86561.59
2022-10-21T03:44:00.592Z,86567.06
2022-10-21T03:46:27.467Z,86566.38
2022-10-21T03:48:57.279Z,86567.75
2022-10-21T03:51:27.948Z,86539.28
2022-10-21T03:53:54.902Z,86537.91
2022-10-21T03:56:21.886Z,86541.38
2022-10-21T03:58:48.786Z,86572.56
2022-10-21T04:01:18.503Z,86574.63
2022-10-21T04:03:45.563Z,86576.69
2022-10-21T04:06:12.516Z,86576.69
2022-10-21T04:08:39.454Z,86560.06
2022-10-21T04:11:06.349Z,86569.78
2022-10-21T04:13:33.620Z,86564.19
2022-10-21T04:16:02.072Z,86575.22
2022-10-21T04:18:29.208Z,86575.22
2022-10-21T04:20:56.425Z,86577.97
2022-10-21T04:23:23.370Z,86569.69
2022-10-21T04:25:50.328Z,86519.69
2022-10-21T04:28:17.381Z,86532.84
2022-10-21T04:30:44.396Z,86577.88
2022-10-21T04:33:11.282Z,86573.06
2022-10-21T04:35:40.276Z,86582.03
2022-10-21T04:38:07.389Z,86546.63
2022-10-21T04:40:34.448Z,86535.59
2022-10-21T04:43:02.213Z,86537.66
2022-10-21T04:45:29.208Z,86541.84
2022-10-21T04:47:56.184Z,86573.03
2022-10-21T04:50:23.029Z,86570.94
2022-10-21T04:52:51.885Z,86531.38
2022-10-21T04:55:18.949Z,86563.22
2022-10-21T04:57:46.193Z,86546.63
2022-10-21T05:00:13.475Z,86572.22
2022-10-21T05:02:40.738Z,86576.38
2022-10-21T05:05:08.500Z,86561.81
2022-10-21T05:07:35.466Z,86586.75
2022-10-21T05:10:02.423Z,86580.53
2022-10-21T05:12:29.363Z,86558.91
2022-10-21T05:14:56.325Z,86558.16
2022-10-21T05:17:23.244Z,86584.63
2022-10-21T05:19:50.257Z,86537.38
2022-10-21T05:22:17.266Z,86579.00
2022-10-21T05:24:44.253Z,86597.69
2022-10-21T05:27:11.204Z,86591.44
2022-10-21T05:29:38.151Z,86594.94
2022-10-21T05:32:05.348Z,86519.28
2022-10-21T05:34:32.353Z,86571.28
2022-10-21T05:36:59.356Z,86601.13
2022-10-21T05:39:26.528Z,86594.16
2022-10-21T05:41:53.478Z,86540.75
2022-10-21T05:44:20.448Z,86599.06
2022-10-21T05:46:47.483Z,86592.84
2022-10-21T05:49:14.641Z,86590.06
2022-10-21T05:51:41.612Z,86614.34
2022-10-21T05:54:08.557Z,86604.03
2022-10-21T05:56:35.485Z,86569.28
2022-10-21T05:59:04.456Z,86606.06
2022-10-21T06:01:33.608Z,86551.28
2022-10-21T06:04:00.579Z,86540.22
2022-10-21T06:06:27.540Z,86617.19
2022-10-21T06:08:54.522Z,86628.22
2022-10-21T06:11:21.622Z,86590.16
2022-10-21T06:13:48.700Z,86626.19
2022-10-21T06:16:16.798Z,86595.75
2022-10-21T06:18:43.957Z,86611.66
2022-10-21T06:21:11.283Z,86623.50
2022-10-21T06:23:38.979Z,86621.44
2022-10-21T06:26:12.860Z,86628.38
2022-10-21T06:28:42.091Z,86633.16
2022-10-21T06:31:12.518Z,86620.75
2022-10-21T06:33:39.469Z,86633.22
2022-10-21T06:36:06.822Z,86634.66
2022-10-21T06:38:33.879Z,86640.19
2022-10-21T06:41:09.089Z,86627.63
2022-10-21T06:43:39.576Z,86644.38
2022-10-21T06:46:12.352Z,86601.41
2022-10-21T06:48:39.483Z,86588.34
2022-10-21T06:51:15.265Z,86623.78
2022-10-21T06:53:43.195Z,86619.66
2022-10-21T06:56:12.980Z,86648.16
2022-10-21T06:58:46.451Z,86644.78
2022-10-21T07:01:34.376Z,86626.09
2022-10-21T07:04:09.209Z,86600.59
2022-10-21T07:06:36.959Z,86595.06
2022-10-21T07:09:06.100Z,86621.47
2022-10-21T07:11:33.161Z,86629.88
2022-10-21T07:14:02.070Z,86650.75
2022-10-21T07:16:31.835Z,86653.59
2022-10-21T07:18:58.991Z,86653.69
2022-10-21T07:21:28.081Z,86653.03
2022-10-21T07:23:59.205Z,86648.25
2022-10-21T07:26:28.325Z,86638.59
2022-10-21T07:28:58.225Z,86649.75
2022-10-21T07:31:25.612Z,86646.34
2022-10-21T07:33:53.252Z,86650.53
2022-10-21T07:36:24.275Z,86621.50
2022-10-21T07:38:53.615Z,86602.16
2022-10-21T07:41:23.790Z,86643.03
2022-10-21T07:43:51.766Z,86631.97
2022-10-21T07:46:20.197Z,86626.44
2022-10-21T07:48:48.177Z,86623.03
2022-10-21T07:51:18.295Z,86645.88
2022-10-21T07:53:45.523Z,86643.13
2022-10-21T07:56:16.768Z,86596.06
2022-10-21T07:58:46.539Z,86634.78
2022-10-21T08:01:15.396Z,86629.22
2022-10-21T08:03:42.803Z,86637.50
2022-10-21T08:06:11.767Z,86602.91
2022-10-21T08:08:40.067Z,86619.47
2022-10-21T08:11:08.287Z,86636.00
2022-10-21T08:13:36.045Z,86618.63
2022-10-21T08:16:06.772Z,86633.16
2022-10-21T08:18:33.750Z,86633.13
2022-10-21T08:21:04.085Z,86628.19
2022-10-21T08:23:31.329Z,86628.13
2022-10-21T08:26:00.847Z,86623.25
2022-10-21T08:28:29.887Z,86637.69
2022-10-21T08:31:14.442Z,86637.63
2022-10-21T08:33:41.482Z,86640.97
2022-10-21T08:36:13.962Z,86636.69
2022-10-21T08:38:41.231Z,86615.94
2022-10-21T08:41:23.437Z,86642.69
2022-10-21T08:43:53.172Z,86632.97
2022-10-21T08:46:30.052Z,86644.66
2022-10-21T08:49:05.709Z,86643.81
2022-10-21T08:51:40.091Z,86626.56
2022-10-21T08:54:15.208Z,86635.31
2022-10-21T08:56:42.289Z,86632.44
2022-10-21T08:59:22.769Z,86619.91
2022-10-21T09:02:18.213Z,86610.13
2022-10-21T09:05:14.332Z,86637.53
2022-10-21T09:07:56.560Z,86640.88
2022-10-21T09:10:29.468Z,86632.41
2022-10-21T09:13:14.992Z,86635.16
2022-10-21T09:16:03.600Z,86636.53
2022-10-21T09:18:47.002Z,86601.78
2022-10-21T09:21:23.453Z,86633.34
2022-10-21T09:24:04.862Z,86625.59
2022-10-21T09:26:31.763Z,86630.25
2022-10-21T09:29:06.505Z,86624.44
2022-10-21T09:31:33.446Z,86588.50
2022-10-21T09:34:06.351Z,86600.72
2022-10-21T09:36:39.622Z,86625.28
2022-10-21T09:39:16.290Z,86622.44
2022-10-21T09:41:48.206Z,86622.81
2022-10-21T09:44:18.688Z,86621.09
2022-10-21T09:46:47.564Z,86617.41
2022-10-21T09:52:21.207Z,86629.41
2022-10-21T09:54:49.014Z,86613.16
2022-10-21T09:57:29.034Z,86611.44
2022-10-21T09:59:59.723Z,86598.19
2022-10-21T10:02:43.261Z,86590.34
2022-10-21T10:05:41.016Z,86611.78
2022-10-21T10:08:26.699Z,86606.09
2022-10-21T10:11:04.421Z,86594.97
2022-10-21T10:13:32.227Z,86602.97
2022-10-21T10:16:29.846Z,86602.22
2022-10-21T10:19:21.112Z,86605.66
2022-10-21T10:22:10.365Z,86601.53
2022-10-21T10:24:40.733Z,86575.31
2022-10-21T10:27:15.727Z,86592.91
2022-10-21T10:29:43.129Z,86593.59
2022-10-21T10:32:15.235Z,86575.00
2022-10-21T10:34:55.768Z,86584.19
2022-10-21T10:37:28.952Z,86556.88
2022-10-21T10:39:58.623Z,86580.19
2022-10-21T10:42:28.442Z,86583.66
2022-10-21T10:44:59.428Z,86549.13
2022-10-21T10:47:29.907Z,86584.09
2022-10-21T10:49:57.065Z,86577.63
2022-10-21T10:52:25.672Z,86578.94
2022-10-21T10:55:10.920Z,86569.81
2022-10-21T10:57:51.980Z,86551.09
2022-10-21T11:00:26.172Z,86546.25
2022-10-21T11:03:10.775Z,86557.19
2022-10-21T11:05:46.509Z,86541.28
2022-10-21T11:08:32.002Z,86563.81
2022-10-21T11:11:14.214Z,86558.75
2022-10-21T11:13:42.278Z,86545.69
2022-10-21T11:16:59.668Z,86564.56
2022-10-21T11:19:30.562Z,86570.69
2022-10-21T11:22:13.535Z,86575.28
2022-10-21T11:24:57.145Z,86562.16
2022-10-21T11:27:55.194Z,86561.91
2022-10-21T11:30:29.761Z,86566.16
2022-10-21T11:33:02.707Z,86555.50
2022-10-21T11:35:37.297Z,86554.72
2022-10-21T11:38:19.399Z,86556.69
2022-10-21T11:40:50.385Z,86533.28
2022-10-21T11:43:38.514Z,86523.72
2022-10-21T11:46:16.719Z,86549.66
2022-10-21T11:48:52.815Z,86549.59
2022-10-21T11:51:28.831Z,86541.31
2022-10-21T11:54:06.373Z,86539.78
2022-10-21T11:56:40.165Z,86546.91
2022-10-21T11:59:47.682Z,86541.84
2022-10-21T12:02:26.106Z,86541.41
2022-10-21T12:05:07.976Z,86543.47
2022-10-21T12:08:10.061Z,86518.69
2022-10-21T12:10:58.860Z,86544.69
2022-10-21T12:13:55.141Z,86536.75
2022-10-21T12:16:29.763Z,86529.28
2022-10-21T12:19:01.471Z,86521.56
2022-10-21T12:21:32.208Z,86530.28
2022-10-21T12:24:15.786Z,86523.53
2022-10-21T12:26:48.671Z,86529.59
2022-10-21T12:29:24.839Z,86528.03
2022-10-21T12:32:01.194Z,86522.56
2022-10-21T12:34:28.990Z,86509.94
2022-10-21T12:36:56.071Z,86485.66
2022-10-21T12:39:34.998Z,86525.31
2022-10-21T12:42:29.222Z,86514.19
2022-10-21T12:44:56.274Z,86486.50
2022-10-21T12:47:33.105Z,86511.13
2022-10-21T12:50:05.012Z,86520.63
2022-10-21T12:52:38.258Z,86524.22
2022-10-21T12:55:17.121Z,86524.63
2022-10-21T12:57:44.575Z,86516.97
2022-10-21T13:03:09.734Z,86525.81
2022-10-21T13:05:36.594Z,86524.41
2022-10-21T13:08:24.771Z,86520.97
2022-10-21T13:11:04.041Z,86522.81
2022-10-21T13:13:47.839Z,86484.38
2022-10-21T13:16:20.838Z,86518.69
2022-10-21T13:18:51.103Z,86526.16
2022-10-21T13:21:47.245Z,86522.69
2022-10-21T13:24:47.212Z,86521.66
2022-10-21T13:27:30.475Z,86517.91
2022-10-21T13:29:59.589Z,86518.56
2022-10-21T13:32:29.112Z,86516.16
2022-10-21T13:35:19.429Z,86526.47
2022-10-21T13:38:04.168Z,86529.22
2022-10-21T13:40:38.069Z,86529.38
2022-10-21T13:43:17.765Z,86528.91
2022-10-21T13:45:50.683Z,86532.31
2022-10-21T13:48:24.789Z,86535.84
2022-10-21T13:50:56.192Z,86541.75
2022-10-21T13:53:38.092Z,86539.13
2022-10-21T13:56:08.881Z,86515.44
2022-10-21T13:58:41.258Z,86530.56
2022-10-21T14:01:14.066Z,86540.38
2022-10-21T14:03:42.439Z,86533.81
2022-10-21T14:06:12.651Z,86524.31
2022-10-21T14:08:45.939Z,86523.63
2022-10-21T14:11:16.366Z,86534.50
2022-10-21T14:13:43.753Z,86527.28
2022-10-21T14:16:20.129Z,86523.97
2022-10-21T14:18:49.288Z,86535.13
2022-10-21T14:21:21.938Z,86531.22
2022-10-21T14:23:50.357Z,86527.94
2022-10-21T14:26:17.741Z,86526.81
2022-10-21T14:28:46.339Z,86538.94
2022-10-21T14:31:14.559Z,86540.06
2022-10-21T14:33:45.327Z,86519.59
2022-10-21T14:36:26.156Z,86536.50
2022-10-21T14:38:55.919Z,86540.91
2022-10-21T14:41:31.587Z,86532.94
2022-10-21T14:44:07.770Z,86501.22
2022-10-21T14:46:43.703Z,86485.25
2022-10-21T14:49:30.638Z,86542.88
2022-10-21T14:52:01.987Z,86513.72
2022-10-21T14:54:45.796Z,86550.94
2022-10-21T14:57:34.206Z,86544.31
2022-10-21T15:00:03.350Z,86498.28
2022-10-21T15:02:34.540Z,86554.81
2022-10-21T15:05:25.631Z,86519.75
2022-10-21T15:07:52.708Z,86557.03
2022-10-21T15:10:20.616Z,86556.81
2022-10-21T15:12:50.573Z,86571.44
2022-10-21T15:15:54.223Z,86565.34
2022-10-21T15:18:24.100Z,86564.31
2022-10-21T15:21:01.733Z,86565.00
2022-10-21T15:23:34.329Z,86573.34
2022-10-21T15:26:11.817Z,86555.66
2022-10-21T15:28:39.003Z,86577.13
2022-10-21T15:31:11.491Z,86574.28
2022-10-21T15:33:38.398Z,86559.22
2022-10-21T15:36:09.822Z,86584.03
2022-10-21T15:38:38.504Z,86562.72
2022-10-21T15:41:05.596Z,86588.94
2022-10-21T15:43:32.647Z,86591.03
2022-10-21T15:45:59.647Z,86586.97
2022-10-21T15:48:28.192Z,86588.44
2022-10-21T15:50:57.388Z,86587.88
2022-10-21T15:53:24.475Z,86559.00
2022-10-21T15:55:51.942Z,86597.66
2022-10-21T15:58:19.023Z,86601.91
2022-10-21T16:00:46.330Z,86598.41
2022-10-21T16:03:13.944Z,86603.28
2022-10-21T16:05:40.938Z,86602.72
2022-10-21T16:08:12.393Z,86564.75
2022-10-21T16:10:41.747Z,86584.72
2022-10-21T16:13:08.674Z,86576.56
2022-10-21T16:15:35.639Z,86586.25
2022-10-21T16:18:02.600Z,86606.41
2022-10-21T16:20:31.574Z,86612.72
2022-10-21T16:23:02.081Z,86589.31
2022-10-21T16:25:31.160Z,86605.25
2022-10-21T16:27:58.120Z,86630.25
2022-10-21T16:30:28.248Z,86613.66
2022-10-21T16:32:55.801Z,86613.03
2022-10-21T16:35:22.821Z,86626.22
2022-10-21T16:37:50.450Z,86637.28
2022-10-21T16:40:32.928Z,86627.66
2022-10-21T16:42:59.879Z,86646.41
2022-10-21T16:45:32.068Z,86647.06
2022-10-21T16:48:03.166Z,86620.13
2022-10-21T16:50:37.463Z,86627.72
2022-10-21T16:53:05.107Z,86647.13
2022-10-21T16:55:32.358Z,86643.03
2022-10-21T16:57:59.325Z,86647.19
2022-10-21T17:00:26.295Z,86645.81
2022-10-21T17:02:53.930Z,86643.03
2022-10-21T17:05:21.004Z,86619.50
2022-10-21T17:07:47.914Z,86638.88
2022-10-21T17:10:15.339Z,86601.50
2022-10-21T17:12:42.614Z,86600.16
2022-10-21T17:15:14.292Z,86639.56
2022-10-21T17:17:41.459Z,86604.31
2022-10-21T17:20:09.319Z,86656.22
2022-10-21T17:22:36.285Z,86639.66
2022-10-21T17:25:03.341Z,86625.13
2022-10-21T17:27:30.204Z,86642.41
2022-10-21T17:29:57.374Z,86640.31
2022-10-21T17:32:25.124Z,86645.19
2022-10-21T17:34:52.100Z,86659.72
2022-10-21T17:37:19.074Z,86652.78
2022-10-21T17:39:46.935Z,86636.88
2022-10-21T17:42:17.417Z,86633.38
2022-10-21T17:44:44.483Z,86655.56
2022-10-21T17:47:11.864Z,86665.25
2022-10-21T17:49:39.395Z,86642.34
2022-10-21T17:52:06.361Z,86666.56
2022-10-21T17:54:36.149Z,86647.19
2022-10-21T17:57:03.600Z,86681.84
2022-10-21T17:59:32.856Z,86679.06
2022-10-21T18:02:00.640Z,86679.06
2022-10-21T18:04:28.619Z,86678.38
2022-10-21T18:06:55.766Z,86668.63
2022-10-21T18:09:22.983Z,86670.72
2022-10-21T18:11:50.053Z,86682.47
2022-10-21T18:14:17.094Z,86692.88
2022-10-21T18:16:44.040Z,86680.38
2022-10-21T18:19:12.180Z,86686.63
2022-10-21T18:21:39.208Z,86688.69
2022-10-21T18:24:10.011Z,86694.91
2022-10-21T18:26:39.715Z,86695.56
2022-10-21T18:29:06.581Z,86669.91
2022-10-21T18:31:35.740Z,86689.31
2022-10-21T18:34:05.120Z,86667.84
2022-10-21T18:36:33.084Z,86677.53
2022-10-21T18:39:00.200Z,86692.78
2022-10-21T18:41:27.495Z,86692.09
2022-10-21T18:43:57.235Z,86698.34
2022-10-21T18:46:24.554Z,86692.09
2022-10-21T18:48:52.000Z,86684.47
2022-10-21T18:51:20.835Z,86673.38
2022-10-21T18:53:49.977Z,86683.06
2022-10-21T18:56:19.189Z,86688.59
2022-10-21T18:58:46.307Z,86672.63
2022-10-21T19:01:15.268Z,86667.06
2022-10-21T19:03:43.346Z,86644.25
2022-10-21T19:06:48.760Z,86694.06
2022-10-21T19:09:19.081Z,86700.28
2022-10-21T19:11:47.019Z,86705.13
2022-10-21T19:14:15.098Z,86691.25
2022-10-21T19:16:43.650Z,86696.78
2022-10-21T19:19:11.134Z,86700.91
2022-10-21T19:21:38.283Z,86698.16
2022-10-21T19:24:06.322Z,86714.78
2022-10-21T19:26:35.667Z,86713.38
2022-10-21T19:29:08.573Z,86700.28
2022-10-21T19:31:36.456Z,86708.53
2022-10-21T19:34:05.981Z,86680.78
2022-10-21T19:36:33.307Z,86695.38
2022-10-21T19:39:00.184Z,86700.94
2022-10-21T19:41:27.102Z,86710.63
2022-10-21T19:43:58.617Z,86703.69
2022-10-21T19:46:30.791Z,86705.75
2022-10-21T19:49:00.132Z,86717.56
2022-10-21T19:51:27.066Z,86703.69
2022-10-21T19:53:55.118Z,86720.34
2022-10-21T19:56:26.924Z,86712.03
2022-10-21T19:58:56.044Z,86682.22
2022-10-21T20:01:25.942Z,86696.78
2022-10-21T20:03:54.051Z,86725.91
2022-10-21T20:06:26.506Z,86709.22
2022-10-21T20:08:55.577Z,86727.94
2022-10-21T20:11:23.011Z,86698.13
2022-10-21T20:13:50.795Z,86722.41
2022-10-21T20:16:19.519Z,86732.09
2022-10-21T20:18:46.701Z,86722.41
2022-10-21T20:21:13.875Z,86698.16
2022-10-21T20:23:40.996Z,86720.31
2022-10-21T20:26:08.396Z,86678.72
2022-10-21T20:28:36.100Z,86696.75
2022-10-21T20:31:06.999Z,86710.63
2022-10-21T20:33:37.320Z,86716.16
2022-10-21T20:36:06.385Z,86721.00
2022-10-21T20:38:33.910Z,86723.09
2022-10-21T20:41:06.596Z,86710.63
2022-10-21T20:43:38.765Z,86709.25
2022-10-21T20:46:10.082Z,86718.94
2022-10-21T20:48:44.562Z,86700.91
2022-10-21T20:51:14.569Z,86716.16
2022-10-21T20:56:13.187Z,86683.56
2022-10-21T20:58:41.319Z,86689.09
2022-10-21T21:04:00.802Z,86706.44
2022-10-21T21:06:28.537Z,86692.53
2022-10-21T21:11:42.656Z,86710.56
2022-10-21T21:14:09.617Z,86708.47
2022-10-21T21:16:36.591Z,86664.13
2022-10-21T21:19:06.085Z,86708.44
2022-10-21T21:21:35.672Z,86681.38
2022-10-21T21:24:03.391Z,86648.13
2022-10-21T21:26:36.389Z,86703.59
2022-10-21T21:29:06.341Z,86704.94
2022-10-21T21:31:35.961Z,86707.00
2022-10-21T21:34:03.819Z,86698.00
2022-10-21T21:36:30.918Z,86694.53
2022-10-21T21:38:58.170Z,86668.91
2022-10-21T21:41:26.465Z,86656.41
2022-10-21T21:43:54.236Z,86665.38
2022-10-21T21:46:24.652Z,86652.94
2022-10-21T21:49:05.503Z,86644.56
2022-10-21T21:51:35.476Z,86667.38
2022-10-21T21:54:04.448Z,86684.69
2022-10-21T21:56:31.563Z,86678.47
2022-10-21T21:58:58.792Z,86645.84
2022-10-21T22:01:28.384Z,86665.94
2022-10-21T22:03:56.471Z,86663.81
2022-10-21T22:08:53.883Z,86658.25
2022-10-21T22:11:23.473Z,86677.00
2022-10-21T22:13:50.690Z,86641.69
2022-10-21T22:16:19.945Z,86660.31
2022-10-21T22:18:46.979Z,86649.22
2022-10-21T22:21:16.548Z,86672.81
2022-10-21T22:23:43.940Z,86671.41
2022-10-21T22:26:12.752Z,86669.94
2022-10-21T22:28:40.470Z,86667.16
2022-10-21T22:31:11.157Z,86637.94
2022-10-21T22:33:38.979Z,86667.06
2022-10-21T22:36:06.282Z,86664.09
2022-10-21T22:38:33.614Z,86646.03
2022-10-21T22:41:02.477Z,86646.88
2022-10-21T22:43:30.011Z,86653.72
2022-10-21T22:46:04.941Z,86654.94
2022-10-21T22:48:42.167Z,86647.34
2022-10-21T22:51:09.238Z,86616.75
2022-10-21T22:53:36.871Z,86634.69
2022-10-21T22:56:04.571Z,86647.22
2022-10-21T22:58:31.930Z,86641.63
2022-10-21T23:00:59.634Z,86657.56
2022-10-21T23:03:26.930Z,86644.34
2022-10-21T23:05:53.879Z,86633.16
2022-10-21T23:08:20.939Z,86658.16
2022-10-21T23:10:49.189Z,86660.88
2022-10-21T23:13:16.432Z,86662.84
2022-10-21T23:15:43.873Z,86660.81
2022-10-21T23:18:10.916Z,86608.06
2022-10-21T23:20:37.975Z,86661.34
2022-10-21T23:23:05.149Z,86632.88
2022-10-21T23:25:32.452Z,86628.75
2022-10-21T23:27:59.402Z,86651.66
2022-10-21T23:30:26.476Z,86646.72
2022-10-21T23:32:53.432Z,86640.53
2022-10-21T23:35:21.042Z,86618.94
2022-10-21T23:37:48.123Z,86645.91
2022-10-21T23:40:15.167Z,86645.28
2022-10-21T23:42:43.023Z,86648.09
2022-10-21T23:45:11.495Z,86627.97
2022-10-21T23:47:40.026Z,86643.94
2022-10-21T23:50:08.343Z,86611.91
2022-10-21T23:52:35.682Z,86649.38
2022-10-21T23:55:03.543Z,86652.16
2022-10-21T23:57:30.591Z,86621.63
2022-10-21T23:59:57.595Z,86620.16
